createdAt,value
2022-12-03T00:01:58.773Z,1.25
2022-12-03T00:04:25.479Z,1.32
2022-12-03T00:06:52.082Z,1.28
2022-12-03T00:09:18.699Z,1.25
2022-12-03T00:11:45.342Z,1.16
2022-12-03T00:14:12.013Z,1.07
2022-12-03T00:16:38.638Z,1.14
2022-12-03T00:19:07.717Z,1.14
2022-12-03T00:21:34.761Z,1.01
2022-12-03T00:24:01.392Z,1.03
2022-12-03T00:26:28.004Z,1.03
2022-12-03T00:28:54.982Z,1.03
2022-12-03T00:31:23.528Z,1.01
2022-12-03T00:33:53.465Z,1.01
2022-12-03T00:36:20.381Z,0.99
2022-12-03T00:38:47.246Z,0.93
2022-12-03T00:41:13.814Z,0.83
2022-12-03T00:43:40.454Z,0.84
2022-12-03T00:46:07.191Z,0.83
2022-12-03T00:48:33.856Z,0.83
2022-12-03T00:51:00.427Z,0.83
2022-12-03T00:53:27.410Z,0.93
2022-12-03T00:55:54.139Z,0.98
2022-12-03T00:58:20.804Z,1.01
2022-12-03T01:00:47.591Z,0.95
2022-12-03T01:03:14.295Z,0.87
2022-12-03T01:05:40.898Z,0.83
2022-12-03T01:08:07.634Z,0.85
2022-12-03T01:10:34.207Z,0.92
2022-12-03T01:13:00.910Z,0.91
2022-12-03T01:15:27.595Z,0.92
2022-12-03T01:17:54.435Z,0.95
2022-12-03T01:20:21.332Z,0.91
2022-12-03T01:22:47.997Z,0.93
2022-12-03T01:25:14.772Z,0.90
2022-12-03T01:27:41.394Z,0.94
2022-12-03T01:30:08.765Z,0.94
2022-12-03T01:32:35.400Z,0.97
2022-12-03T01:35:02.103Z,0.93
2022-12-03T01:37:28.839Z,0.89
2022-12-03T01:39:55.550Z,0.92
2022-12-03T01:42:25.888Z,0.91
2022-12-03T01:44:54.914Z,0.95
2022-12-03T01:47:28.059Z,0.88
2022-12-03T01:50:20.815Z,0.98
2022-12-03T01:52:47.618Z,0.92
2022-12-03T01:55:18.560Z,0.88
2022-12-03T01:57:47.988Z,0.90
2022-12-03T02:00:17.647Z,0.90
2022-12-03T02:02:45.372Z,0.78
2022-12-03T02:05:19.319Z,0.76
2022-12-03T02:07:46.599Z,0.72
2022-12-03T02:10:16.004Z,0.61
2022-12-03T02:12:51.970Z,0.60
2022-12-03T02:15:18.766Z,0.59
2022-12-03T02:17:45.652Z,0.60
2022-12-03T02:20:13.644Z,0.65
2022-12-03T02:22:55.422Z,0.71
2022-12-03T02:25:27.203Z,0.73
2022-12-03T02:27:55.536Z,0.71
2022-12-03T02:30:25.319Z,0.67
2022-12-03T02:32:53.480Z,0.60
2022-12-03T02:35:23.094Z,0.66
2022-12-03T02:37:54.062Z,0.67
2022-12-03T02:40:23.941Z,0.76
2022-12-03T02:42:53.169Z,0.74
2022-12-03T02:45:25.631Z,0.65
2022-12-03T02:48:01.024Z,0.62
2022-12-03T02:50:34.443Z,0.66
2022-12-03T02:53:04.947Z,0.72
2022-12-03T02:55:38.544Z,0.76
2022-12-03T02:58:05.728Z,0.73
2022-12-03T03:00:33.380Z,0.77
2022-12-03T03:03:01.331Z,0.65
2022-12-03T03:05:28.400Z,0.69
2022-12-03T03:07:58.357Z,0.64
2022-12-03T03:10:26.436Z,0.65
2022-12-03T03:12:55.039Z,0.61
2022-12-03T03:15:22.750Z,0.55
2022-12-03T03:17:49.584Z,0.66
2022-12-03T03:20:16.304Z,0.54
2022-12-03T03:22:43.415Z,0.44
2022-12-03T03:25:15.757Z,0.49
2022-12-03T03:27:42.972Z,0.56
2022-12-03T03:30:10.903Z,0.49
2022-12-03T03:32:39.553Z,0.57
2022-12-03T03:35:07.282Z,0.64
2022-12-03T03:37:34.111Z,0.69
2022-12-03T03:40:00.805Z,0.63
2022-12-03T03:42:27.637Z,0.61
2022-12-03T03:44:54.493Z,0.60
2022-12-03T03:47:21.236Z,0.64
2022-12-03T03:49:50.682Z,0.61
2022-12-03T03:52:19.788Z,0.62
2022-12-03T03:54:47.303Z,0.59
2022-12-03T03:57:14.466Z,0.54
2022-12-03T03:59:41.397Z,0.54
2022-12-03T04:02:17.776Z,0.50
2022-12-03T04:04:44.686Z,0.50
2022-12-03T04:07:11.295Z,0.45
2022-12-03T04:09:37.895Z,0.42
2022-12-03T04:12:23.088Z,0.40
2022-12-03T04:14:49.695Z,0.43
2022-12-03T04:17:16.286Z,0.37
2022-12-03T04:19:43.136Z,0.28
2022-12-03T04:22:28.254Z,0.28
2022-12-03T04:25:17.675Z,0.34
2022-12-03T04:28:03.806Z,0.27
2022-12-03T04:30:30.725Z,0.31
2022-12-03T04:33:16.082Z,0.29
2022-12-03T04:35:42.742Z,0.36
2022-12-03T04:38:14.598Z,0.36
2022-12-03T04:41:00.240Z,0.35
2022-12-03T04:43:32.612Z,0.35
2022-12-03T04:45:59.358Z,0.37
2022-12-03T04:48:26.425Z,0.36
2022-12-03T04:50:53.238Z,0.40
2022-12-03T04:53:19.842Z,0.46
2022-12-03T04:55:46.506Z,0.45
2022-12-03T04:58:13.133Z,0.37
2022-12-03T05:00:39.747Z,0.30
2022-12-03T05:03:06.399Z,0.26
2022-12-03T05:05:33.067Z,0.31
2022-12-03T05:07:59.857Z,0.29
2022-12-03T05:10:27.857Z,0.33
2022-12-03T05:12:54.547Z,0.32
2022-12-03T05:15:21.227Z,0.27
2022-12-03T05:17:47.795Z,0.33
2022-12-03T05:20:33.495Z,0.28
2022-12-03T05:23:00.160Z,0.28
2022-12-03T05:25:26.767Z,0.27
2022-12-03T05:27:53.987Z,0.23
2022-12-03T05:30:20.661Z,0.16
2022-12-03T05:32:47.335Z,0.18
2022-12-03T05:35:14.028Z,0.11
2022-12-03T05:37:40.615Z,0.16
2022-12-03T05:40:07.967Z,0.18
2022-12-03T05:42:53.510Z,0.21
2022-12-03T05:45:22.158Z,0.26
2022-12-03T05:47:48.899Z,0.33
2022-12-03T05:50:15.740Z,0.27
2022-12-03T05:52:42.335Z,0.26
2022-12-03T05:55:09.953Z,0.17
2022-12-03T05:57:36.718Z,0.19
2022-12-03T06:00:05.904Z,0.30
2022-12-03T06:02:32.622Z,0.33
2022-12-03T06:04:59.465Z,0.27
2022-12-03T06:07:26.578Z,0.33
2022-12-03T06:09:53.262Z,0.32
2022-12-03T06:12:19.956Z,0.47
2022-12-03T06:14:46.634Z,0.49
2022-12-03T06:17:13.367Z,0.56
2022-12-03T06:19:40.006Z,0.50
2022-12-03T06:22:06.681Z,0.52
2022-12-03T06:24:33.405Z,0.56
2022-12-03T06:27:00.470Z,0.52
2022-12-03T06:29:27.208Z,0.61
2022-12-03T06:31:53.822Z,0.74
2022-12-03T06:34:20.435Z,0.82
2022-12-03T06:36:47.141Z,0.81
2022-12-03T06:39:13.750Z,0.89
2022-12-03T06:41:40.362Z,0.85
2022-12-03T06:44:07.002Z,0.85
2022-12-03T06:46:33.701Z,0.84
2022-12-03T06:49:00.765Z,0.88
2022-12-03T06:51:27.459Z,0.84
2022-12-03T06:53:54.074Z,0.86
2022-12-03T06:56:22.527Z,0.97
2022-12-03T06:58:49.331Z,0.91
2022-12-03T07:01:16.003Z,1.02
2022-12-03T07:03:42.591Z,1.10
2022-12-03T07:06:09.227Z,1.19
2022-12-03T07:08:35.834Z,1.26
2022-12-03T07:11:02.480Z,1.15
2022-12-03T07:13:29.168Z,1.16
2022-12-03T07:15:56.009Z,1.24
2022-12-03T07:18:22.643Z,1.22
2022-12-03T07:20:49.238Z,1.34
2022-12-03T07:23:15.785Z,1.46
2022-12-03T07:25:42.468Z,1.39
2022-12-03T07:28:09.062Z,1.45
2022-12-03T07:30:35.671Z,1.58
2022-12-03T07:33:02.348Z,1.81
2022-12-03T07:35:28.953Z,1.85
2022-12-03T07:37:55.524Z,1.92
2022-12-03T07:40:22.197Z,1.84
2022-12-03T07:42:48.764Z,1.76
2022-12-03T07:45:15.571Z,1.81
2022-12-03T07:47:42.165Z,2.00
2022-12-03T07:50:09.394Z,2.09
2022-12-03T07:52:36.060Z,2.21
2022-12-03T07:55:02.819Z,2.23
2022-12-03T07:57:29.537Z,2.40
2022-12-03T07:59:56.182Z,2.47
2022-12-03T08:02:22.914Z,2.40
2022-12-03T08:04:49.657Z,2.18
2022-12-03T08:07:16.268Z,2.19
2022-12-03T08:09:43.247Z,2.42
2022-12-03T08:12:22.265Z,2.52
2022-12-03T08:14:49.264Z,2.41
2022-12-03T08:17:17.944Z,2.58
2022-12-03T08:19:47.087Z,2.74
2022-12-03T08:22:15.931Z,2.73
2022-12-03T08:24:43.752Z,2.57
2022-12-03T08:27:19.854Z,2.67
2022-12-03T08:29:46.702Z,2.52
2022-12-03T08:32:13.825Z,2.57
2022-12-03T08:34:43.014Z,2.71
2022-12-03T08:37:16.434Z,2.79
2022-12-03T08:39:48.526Z,2.81
2022-12-03T08:42:42.489Z,2.92
2022-12-03T08:45:35.320Z,2.83
2022-12-03T08:48:34.293Z,2.81
2022-12-03T08:51:20.231Z,2.88
2022-12-03T08:53:55.433Z,3.00
2022-12-03T08:56:28.972Z,2.99
2022-12-03T08:59:16.178Z,3.12
2022-12-03T09:01:45.633Z,3.06
2022-12-03T09:04:18.603Z,3.14
2022-12-03T09:06:45.439Z,3.24
2022-12-03T09:09:12.004Z,3.28
2022-12-03T09:11:38.852Z,3.48
2022-12-03T09:14:06.341Z,3.55
2022-12-03T09:16:32.995Z,3.54
2022-12-03T09:18:59.860Z,3.66
2022-12-03T09:21:26.518Z,3.70
2022-12-03T09:23:53.189Z,3.67
2022-12-03T09:26:19.969Z,3.76
2022-12-03T09:28:48.348Z,3.76
2022-12-03T09:31:16.193Z,3.85
2022-12-03T09:33:43.121Z,3.80
2022-12-03T09:36:09.774Z,3.88
2022-12-03T09:38:36.444Z,3.91
2022-12-03T09:41:03.178Z,3.88
2022-12-03T09:44:02.590Z,3.95
2022-12-03T09:46:22.000Z,4.06
2022-12-03T09:48:49.219Z,4.18
2022-12-03T09:51:15.905Z,4.13
2022-12-03T09:53:42.647Z,4.11
2022-12-03T09:56:18.429Z,4.10
2022-12-03T09:58:45.265Z,4.23
2022-12-03T10:01:14.857Z,4.38
2022-12-03T10:03:48.000Z,4.46
2022-12-03T10:06:21.600Z,4.55
2022-12-03T10:08:50.478Z,4.64
2022-12-03T10:11:19.263Z,4.77
2022-12-03T10:13:47.566Z,4.85
2022-12-03T10:16:19.078Z,4.80
2022-12-03T10:18:48.908Z,4.91
2022-12-03T10:21:44.947Z,5.08
2022-12-03T10:24:23.613Z,5.15
2022-12-03T10:26:58.621Z,5.19
2022-12-03T10:29:40.737Z,5.18
2022-12-03T10:32:10.138Z,5.20
2022-12-03T10:34:39.046Z,5.20
2022-12-03T10:37:15.182Z,5.17
2022-12-03T10:40:01.120Z,5.17
2022-12-03T10:42:31.798Z,5.11
2022-12-03T10:45:22.742Z,5.25
2022-12-03T10:48:14.258Z,5.20
2022-12-03T10:50:52.836Z,5.16
2022-12-03T10:53:22.510Z,5.20
2022-12-03T10:55:51.768Z,5.17
2022-12-03T10:58:22.723Z,5.30
2022-12-03T11:00:51.437Z,5.31
2022-12-03T11:03:24.747Z,5.35
2022-12-03T11:05:53.999Z,5.37
2022-12-03T11:09:09.072Z,5.41
2022-12-03T11:11:48.836Z,5.46
2022-12-03T11:14:53.625Z,5.56
2022-12-03T11:17:38.981Z,5.60
2022-12-03T11:20:18.076Z,5.68
2022-12-03T11:22:49.355Z,5.64
2022-12-03T11:25:47.068Z,5.64
2022-12-03T11:28:14.172Z,5.57
2022-12-03T11:31:01.480Z,5.64
2022-12-03T11:33:36.830Z,5.65
2022-12-03T11:36:03.559Z,5.65
2022-12-03T11:38:50.687Z,5.77
2022-12-03T11:41:28.909Z,5.83
2022-12-03T11:43:56.256Z,5.87
2022-12-03T11:46:30.625Z,5.73
2022-12-03T11:48:59.136Z,5.72
2022-12-03T11:51:28.545Z,5.69
2022-12-03T11:53:57.933Z,5.69
2022-12-03T11:56:33.762Z,5.72
2022-12-03T11:59:03.513Z,5.65
2022-12-03T12:01:38.509Z,5.49
2022-12-03T12:04:06.720Z,5.43
2022-12-03T12:06:42.577Z,5.45
2022-12-03T12:09:09.649Z,5.51
2022-12-03T12:11:41.386Z,5.55
2022-12-03T12:14:09.048Z,5.56
2022-12-03T12:16:40.982Z,5.51
2022-12-03T12:19:31.157Z,5.57
2022-12-03T12:22:14.590Z,5.45
2022-12-03T12:24:43.184Z,5.47
2022-12-03T12:27:15.732Z,5.52
2022-12-03T12:29:44.011Z,5.53
2022-12-03T12:32:10.790Z,5.53
2022-12-03T12:34:45.642Z,5.50
2022-12-03T12:37:33.709Z,5.29
2022-12-03T12:40:05.709Z,5.20
2022-12-03T12:42:38.271Z,5.24
2022-12-03T12:45:08.026Z,5.15
2022-12-03T12:47:37.720Z,5.08
2022-12-03T12:50:11.446Z,5.06
2022-12-03T12:52:52.767Z,5.26
2022-12-03T12:55:20.509Z,5.36
2022-12-03T12:57:47.286Z,5.32
2022-12-03T13:00:16.554Z,5.07
2022-12-03T13:02:44.691Z,5.07
2022-12-03T13:05:13.201Z,5.04
2022-12-03T13:07:41.501Z,5.03
2022-12-03T13:10:36.856Z,5.04
2022-12-03T13:13:20.374Z,5.09
2022-12-03T13:15:57.501Z,5.06
2022-12-03T13:18:33.448Z,5.06
2022-12-03T13:21:06.419Z,5.00
2022-12-03T13:23:35.310Z,4.96
2022-12-03T13:26:28.494Z,4.86
2022-12-03T13:29:06.354Z,4.84
2022-12-03T13:31:41.860Z,4.87
2022-12-03T13:34:33.199Z,4.83
2022-12-03T13:37:01.627Z,4.82
2022-12-03T13:39:39.310Z,4.77
2022-12-03T13:42:39.703Z,4.76
2022-12-03T13:45:15.292Z,4.70
2022-12-03T13:47:49.228Z,4.62
2022-12-03T13:50:40.273Z,4.52
2022-12-03T13:53:32.722Z,4.49
2022-12-03T13:56:20.555Z,4.57
2022-12-03T13:58:47.159Z,4.51
2022-12-03T14:01:13.820Z,4.50
2022-12-03T14:03:40.487Z,4.53
2022-12-03T14:06:07.382Z,4.49
2022-12-03T14:08:34.011Z,4.53
2022-12-03T14:11:01.081Z,4.39
2022-12-03T14:13:27.911Z,4.34
2022-12-03T14:15:54.517Z,4.31
2022-12-03T14:18:21.265Z,4.30
2022-12-03T14:20:48.396Z,4.26
2022-12-03T14:23:15.349Z,4.25
2022-12-03T14:25:44.028Z,4.20
2022-12-03T14:28:10.906Z,4.14
2022-12-03T14:30:37.544Z,4.09
2022-12-03T14:33:04.172Z,4.04
2022-12-03T14:35:30.895Z,4.04
2022-12-03T14:37:57.486Z,4.02
2022-12-03T14:40:24.417Z,4.03
2022-12-03T14:42:51.143Z,4.04
2022-12-03T14:45:17.783Z,3.95
2022-12-03T14:47:59.208Z,3.98
2022-12-03T14:50:25.860Z,3.92
2022-12-03T14:52:52.603Z,3.92
2022-12-03T14:55:19.260Z,3.90
2022-12-03T14:57:45.828Z,3.89
2022-12-03T15:00:16.742Z,3.90
2022-12-03T15:02:43.349Z,3.95
2022-12-03T15:05:13.326Z,3.90
2022-12-03T15:07:40.129Z,3.90
2022-12-03T15:10:08.169Z,3.83
2022-12-03T15:12:34.838Z,3.84
2022-12-03T15:15:01.499Z,3.78
2022-12-03T15:17:32.039Z,3.79
2022-12-03T15:19:59.001Z,3.74
2022-12-03T15:22:25.721Z,3.76
2022-12-03T15:24:52.322Z,3.74
2022-12-03T15:27:18.887Z,3.75
2022-12-03T15:29:45.448Z,3.67
2022-12-03T15:32:12.207Z,3.64
2022-12-03T15:34:38.813Z,3.60
2022-12-03T15:37:05.517Z,3.60
2022-12-03T15:39:36.395Z,3.49
2022-12-03T15:42:03.063Z,3.50
2022-12-03T15:44:29.692Z,3.47
2022-12-03T15:46:56.346Z,3.43
2022-12-03T15:49:22.994Z,3.45
2022-12-03T15:51:49.544Z,3.44
2022-12-03T15:54:16.128Z,3.38
2022-12-03T15:56:42.757Z,3.39
2022-12-03T15:59:09.323Z,3.39
2022-12-03T16:01:36.053Z,3.39
2022-12-03T16:04:02.805Z,3.28
2022-12-03T16:06:29.472Z,3.32
2022-12-03T16:08:56.101Z,3.26
2022-12-03T16:11:22.758Z,3.27
2022-12-03T16:13:49.368Z,3.18
2022-12-03T16:16:16.149Z,3.17
2022-12-03T16:18:42.835Z,3.13
2022-12-03T16:21:09.481Z,3.11
2022-12-03T16:23:36.096Z,3.06
2022-12-03T16:26:05.403Z,3.04
2022-12-03T16:28:32.010Z,2.94
2022-12-03T16:30:58.970Z,2.89
2022-12-03T16:33:27.715Z,2.91
2022-12-03T16:35:54.870Z,2.81
2022-12-03T16:38:21.436Z,2.80
2022-12-03T16:40:48.188Z,2.84
2022-12-03T16:43:14.865Z,2.82
2022-12-03T16:46:01.840Z,2.81
2022-12-03T16:48:29.991Z,2.83
2022-12-03T16:50:56.653Z,2.79
2022-12-03T16:53:23.332Z,2.82
2022-12-03T16:55:49.954Z,2.81
2022-12-03T16:58:18.824Z,2.77
2022-12-03T17:00:45.440Z,2.74
2022-12-03T17:03:12.130Z,2.75
2022-12-03T17:05:38.729Z,2.80
2022-12-03T17:08:05.567Z,2.87
2022-12-03T17:10:32.340Z,2.83
2022-12-03T17:13:09.221Z,2.85
2022-12-03T17:15:36.990Z,2.90
2022-12-03T17:18:03.972Z,2.89
2022-12-03T17:20:31.658Z,2.90
2022-12-03T17:22:59.172Z,2.89
2022-12-03T17:25:26.520Z,3.00
2022-12-03T17:27:53.161Z,2.98
2022-12-03T17:30:20.121Z,2.97
2022-12-03T17:32:46.747Z,2.94
2022-12-03T17:35:13.811Z,2.90
2022-12-03T17:37:40.515Z,2.95
2022-12-03T17:40:10.858Z,2.95
2022-12-03T17:42:37.439Z,2.94
2022-12-03T17:45:04.666Z,2.96
2022-12-03T17:47:31.473Z,2.94
2022-12-03T17:49:58.108Z,2.93
2022-12-03T17:52:24.770Z,2.90
2022-12-03T17:57:38.088Z,2.88
2022-12-03T18:00:05.521Z,2.87
2022-12-03T18:02:32.192Z,2.93
2022-12-03T18:04:58.823Z,2.91
2022-12-03T18:07:25.519Z,2.94
2022-12-03T18:09:53.305Z,2.90
2022-12-03T18:12:22.300Z,2.88
2022-12-03T18:14:48.979Z,2.81
2022-12-03T18:17:15.582Z,2.77
2022-12-03T18:19:42.212Z,2.78
2022-12-03T18:22:09.262Z,2.75
2022-12-03T18:24:35.988Z,2.77
2022-12-03T18:27:02.589Z,2.77
2022-12-03T18:29:29.214Z,2.81
2022-12-03T18:31:55.977Z,2.84
2022-12-03T18:34:22.659Z,2.82
2022-12-03T18:36:49.497Z,2.83
2022-12-03T18:39:28.513Z,2.90
2022-12-03T18:41:55.176Z,2.89
2022-12-03T18:44:21.857Z,2.89
2022-12-03T18:46:55.928Z,2.90
2022-12-03T18:49:22.671Z,2.90
2022-12-03T18:51:54.325Z,2.87
2022-12-03T18:54:24.114Z,2.80
2022-12-03T18:56:50.747Z,2.79
2022-12-03T18:59:17.300Z,2.85
2022-12-03T19:01:43.962Z,2.84
2022-12-03T19:04:11.039Z,2.84
2022-12-03T19:06:37.689Z,2.84
2022-12-03T19:09:04.792Z,2.84
2022-12-03T19:11:34.007Z,2.84
2022-12-03T19:14:00.708Z,2.81
2022-12-03T19:16:27.350Z,2.80
2022-12-03T19:18:55.458Z,2.73
2022-12-03T19:21:22.369Z,2.64
2022-12-03T19:24:16.445Z,2.58
2022-12-03T19:26:35.690Z,2.49
2022-12-03T19:29:03.041Z,2.49
2022-12-03T19:31:33.254Z,2.59
2022-12-03T19:34:00.172Z,2.66
2022-12-03T19:36:29.767Z,2.60
2022-12-03T19:38:58.711Z,2.58
2022-12-03T19:41:27.985Z,2.57
2022-12-03T19:43:56.457Z,2.52
2022-12-03T19:46:25.189Z,2.52
2022-12-03T19:48:53.458Z,2.60
2022-12-03T19:51:34.003Z,2.67
2022-12-03T19:54:03.167Z,2.59
2022-12-03T19:56:30.509Z,2.52
2022-12-03T19:58:58.109Z,2.51
2022-12-03T20:01:28.273Z,2.39
2022-12-03T20:03:57.185Z,2.32
2022-12-03T20:06:27.178Z,2.34
2022-12-03T20:08:58.961Z,2.40
2022-12-03T20:11:28.643Z,2.36
2022-12-03T20:13:57.534Z,2.47
2022-12-03T20:16:25.751Z,2.39
2022-12-03T20:18:56.800Z,2.40
2022-12-03T20:21:23.513Z,2.35
2022-12-03T20:23:50.230Z,2.32
2022-12-03T20:26:19.730Z,2.32
2022-12-03T20:28:50.314Z,2.34
2022-12-03T20:31:19.782Z,2.31
2022-12-03T20:33:48.524Z,2.17
2022-12-03T20:36:16.886Z,2.21
2022-12-03T20:38:43.724Z,2.22
2022-12-03T20:41:12.578Z,2.33
2022-12-03T20:43:39.588Z,2.31
2022-12-03T20:46:15.654Z,2.34
2022-12-03T20:48:43.402Z,2.43
2022-12-03T20:51:12.199Z,2.46
2022-12-03T20:53:39.388Z,2.50
2022-12-03T20:56:06.824Z,2.56
2022-12-03T20:58:34.596Z,2.56
2022-12-03T21:01:18.991Z,2.41
2022-12-03T21:03:46.699Z,2.43
2022-12-03T21:06:14.906Z,2.35
2022-12-03T21:08:42.913Z,2.37
2022-12-03T21:11:11.978Z,2.42
2022-12-03T21:13:41.670Z,2.41
2022-12-03T21:16:11.366Z,2.30
2022-12-03T21:18:38.377Z,2.28
2022-12-03T21:21:06.075Z,2.28
2022-12-03T21:23:33.842Z,2.29
2022-12-03T21:26:12.549Z,2.32
2022-12-03T21:28:41.592Z,2.33
2022-12-03T21:31:10.557Z,2.29
2022-12-03T21:33:38.227Z,2.28
2022-12-03T21:36:05.994Z,2.30
2022-12-03T21:38:33.902Z,2.34
2022-12-03T21:41:01.102Z,2.33
2022-12-03T21:43:28.164Z,2.28
2022-12-03T21:45:55.247Z,2.27
2022-12-03T21:48:22.501Z,2.25
2022-12-03T21:51:03.710Z,2.28
2022-12-03T21:53:32.230Z,2.24
2022-12-03T21:55:59.981Z,2.24
2022-12-03T21:58:26.689Z,2.21
2022-12-03T22:00:53.408Z,2.22
2022-12-03T22:03:20.117Z,2.26
2022-12-03T22:05:46.938Z,2.27
2022-12-03T22:08:13.916Z,2.27
2022-12-03T22:10:41.614Z,2.28
2022-12-03T22:13:08.352Z,2.34
2022-12-03T22:15:37.809Z,2.29
2022-12-03T22:18:04.855Z,2.23
2022-12-03T22:20:31.579Z,2.29
2022-12-03T22:22:58.217Z,2.33
2022-12-03T22:25:24.877Z,2.30
2022-12-03T22:27:51.473Z,2.23
2022-12-03T22:30:18.194Z,2.20
2022-12-03T22:32:45.035Z,2.24
2022-12-03T22:35:11.633Z,2.19
2022-12-03T22:37:38.857Z,2.19
2022-12-03T22:40:06.443Z,2.21
2022-12-03T22:42:33.073Z,2.23
2022-12-03T22:44:59.657Z,2.25
2022-12-03T22:47:26.364Z,2.31
2022-12-03T22:49:53.296Z,2.37
2022-12-03T22:52:20.075Z,2.26
2022-12-03T22:54:46.670Z,2.28
2022-12-03T22:57:13.286Z,2.29
2022-12-03T22:59:39.888Z,2.25
2022-12-03T23:02:06.456Z,2.26
2022-12-03T23:04:33.073Z,2.28
2022-12-03T23:06:59.688Z,2.26
2022-12-03T23:09:26.373Z,2.25
2022-12-03T23:11:52.987Z,2.21
2022-12-03T23:14:19.608Z,2.20
2022-12-03T23:16:46.211Z,2.17
2022-12-03T23:19:12.883Z,2.20
2022-12-03T23:21:39.529Z,2.13
2022-12-03T23:24:06.746Z,2.09
2022-12-03T23:26:35.798Z,2.05
2022-12-03T23:29:03.139Z,2.05
2022-12-03T23:31:31.602Z,2.10
2022-12-03T23:33:59.589Z,2.11
2022-12-03T23:36:28.827Z,2.11
2022-12-03T23:38:55.540Z,2.10
2022-12-03T23:41:23.471Z,2.11
2022-12-03T23:43:50.171Z,2.08
2022-12-03T23:46:24.917Z,2.12
2022-12-03T23:48:52.354Z,2.07
2022-12-03T23:51:21.766Z,2.07
2022-12-03T23:53:48.614Z,2.06
2022-12-03T23:56:21.940Z,2.05
2022-12-03T23:58:48.854Z,2.08
